Sterling, North Dakota
Current Conditions -  °F | °C
As of 9:52 AM on Sunday 23 Nov 2014 (Local Time) from KBIS Reporting Station
Broken Clouds Broken Clouds  
Wind Chill: 20°   Ceiling: 3200
Heat Index: 33°   Visibility: 10mi
Dew Point: 18°   Wind: 28mph
Humidity: 54%   Direction: 290°WNW
Pressure: 29.53"   Gusts: 37mph
Location:  46.81°N, 100.29°W
Report Text: KBIS 231552Z 29024G32KT 10SM BKN032 01/M08 A2953 RMK AO2 PK WND 29039/1542 SLP017 T00061078
Loading
Personal Weather Stations






























Interactive Weather Map New forecast layout! Learn more

10-Day Weather Forecast

Advertisements
Track Severe Weather on mobile